Portada
METAR-TAF:

METAR-TAF

Aeroports :

Laurinburg-Maxton Airport

Maxton, Carolina del Nord, Estats Units d'Amèrica

latitud: 34-47-29N, longitud: 079-22-05W, altitud: 67 m

Observació

L'informe es va fer fa 44 minuts, a les 13:52 UTC
Vent 8 kt del Est/Nord-Est
Temperatura 27°C
Humitat 58%
Pressió 1015 hPa
Visibilitat: 16.1 km
Cel clar

METAR: KMEB 211352Z AUTO 06008KT 10SM CLR 27/18 A2998 RMK AO2 SLP150 T02720178

Hora: 10:36 (14:36 UTC)


TAF: manca

Observacions i pronòstics meteorològics de més de 4000 aeroports (METAR i TAF).

Les estacions disponibles són els punts grocs i vermells al mapa.

Posi el ratolí al punt desitjat per veure el nom de l'estació.

Feu clic per veure les observacions i els pronòstics meteorològics.

Per canviar el mapa: feu clic els botons verds amb una creu de color negre per apropar; al botó verd amb un guió per allunyar la imatge; o en les fletxes verdes per a mapes adjacents.


METAR-TAF: